• Join FlightAware (Why Join?)
  • Login
  • US Flag 
05:53AM EDT


 

Airport Tracker/Info


-or-


 

Live Flight TrackerFlight Track Log ✈ N1253W ✈ 15-May-2013 ✈ KMQS - KOSU

Flight Track Log - Related Links

Times and Time Zones

All times are in EDT time to prevent confusion due to time zone crossing. See the N1253W flight status page for this flight to view local times or setup timezone preferences in your user account.

Time Position Orientation Groundspeed Altitude Reporting Facility
EDT Latitude Longitude Course Direction KTS MPH feet Rate Location/Type
08:57PM 39.9833 -75.9000 190° South 142 163 1,700  Level Philadelphia TRACON
08:58PM 39.9683 -75.9036 190° South 152 175 2,500 1,680 Climbing New York Center
08:59PM 39.9392 -75.8556 128° Southeast 168 193 4,000 1,440 Climbing New York Center
09:00PM 39.9086 -75.7908 122° Southeast 204 235 5,500 1,440 Climbing New York Center
09:01PM 39.8919 -75.8386 246° West 107 123 7,000 1,740 Climbing New York Center
09:02PM 39.8956 -75.9011 274° West 115 132 9,000 1,920 Climbing New York Center
09:03PM 39.8953 -75.9550 270° West 162 186 10,900 1,860 Climbing New York Center
09:04PM 39.8989 -76.0150 275° West 162 186 12,800 1,680 Climbing New York Center
09:05PM 39.9008 -76.0664 273° West 157 181 14,400 1,620 Climbing New York Center
09:06PM 39.9039 -76.1369 273° West 176 203 16,000 1,380 Climbing New York Center
09:07PM 39.9075 -76.1969 275° West 184 212 17,200 1,320 Climbing New York Center
09:08PM 39.9119 -76.2783 274° West 195 224 18,700 1,380 Climbing New York Center
09:09PM 39.9128 -76.3517 271° West 200 230 20,000 1,320 Climbing New York Center
09:10PM 39.9156 -76.4222 273° West 200 230 21,300 1,260 Climbing New York Center
09:11PM 39.9186 -76.4903 273° West 200 230 22,600 1,140 Climbing New York Center
09:12PM 39.9211 -76.5636 273° West 200 230 23,600 960 Climbing New York Center
09:13PM 39.9239 -76.6367 273° West 200 230 24,600 960 Climbing New York Center
09:14PM 39.9267 -76.7075 273° West 200 230 25,600 660 Climbing New York Center
09:15PM 39.9311 -76.7808 275° West 200 230 26,000 180 Climbing New York Center
09:16PM 39.9372 -76.8656 275° West 207 238 26,000  Level New York Center
09:17PM 39.9428 -76.9581 275° West 236 272 26,000  Level New York Center
09:18PM 39.9464 -77.0478 273° West 251 289 26,000  Level New York Center
09:19PM 39.9539 -77.1406 276° West 257 296 26,000  Level New York Center
09:20PM 39.9594 -77.2331 275° West 257 296 26,000  Level New York Center
09:21PM 39.9644 -77.3283 274° West 257 296 26,000  Level New York Center
09:22PM 39.9719 -77.4211 276° West 257 296 26,000  Level New York Center
09:24PM 39.9847 -77.6214 275° West 265 305 26,000  Level Cleveland Center
09:25PM 39.9894 -77.7189 274° West 270 311 26,000  Level Cleveland Center
09:26PM 39.9939 -77.8136 274° West 270 311 26,000  Level Cleveland Center
09:27PM 40.0003 -77.9108 275° West 270 311 26,000  Level Cleveland Center
09:28PM 40.0047 -78.0056 274° West 270 311 26,000  Level Cleveland Center
09:29PM 40.0108 -78.0975 275° West 270 311 26,000  Level Cleveland Center
09:30PM 40.0150 -78.1922 273° West 270 311 26,000  Level Cleveland Center
09:31PM 40.0150 -78.2897 270° West 270 311 26,000  Level Cleveland Center
09:32PM 40.0208 -78.3844 275° West 270 311 26,000  Level Cleveland Center
09:33PM 40.0247 -78.4792 273° West 270 311 26,000  Level Cleveland Center
09:34PM 40.0411 -78.5708 283° West 270 311 26,000  Level Cleveland Center
09:35PM 40.0636 -78.6653 287° West 275 316 26,000  Level Cleveland Center
09:36PM 40.0839 -78.7569 286° West 275 316 26,000  Level Cleveland Center
09:37PM 40.1019 -78.8486 284° West 275 316 26,000  Level Cleveland Center
09:38PM 40.1242 -78.9406 288° West 275 316 26,000  Level Cleveland Center
09:39PM 40.1400 -79.0325 283° West 270 311 26,000  Level Cleveland Center
09:40PM 40.1497 -79.1272 278° West 264 304 26,000  Level Cleveland Center
09:41PM 40.1611 -79.2219 279° West 264 304 26,000  Level Cleveland Center
09:42PM 40.1747 -79.3222 280° West 264 304 26,000  Level Cleveland Center
09:43PM 40.1864 -79.4144 279° West 264 304 26,000  Level Cleveland Center
09:44PM 40.1997 -79.5067 281° West 259 298 26,000  Level Cleveland Center
09:45PM 40.2089 -79.5989 277° West 259 298 26,000  Level Cleveland Center
09:46PM 40.2200 -79.6939 279° West 259 298 26,000  Level Cleveland Center
09:47PM 40.2186 -79.7892 269° West 259 298 26,000  Level Cleveland Center
09:48PM 40.2192 -79.8817 270° West 259 298 26,000  Level Cleveland Center
09:49PM 40.2197 -79.9794 270° West 259 298 26,000  Level Cleveland Center
09:50PM 40.2181 -80.0719 269° West 259 298 26,000  Level Cleveland Center
09:51PM 40.2164 -80.1697 269° West 265 305 26,000  Level Cleveland Center
09:52PM 40.2147 -80.2650 269° West 270 311 26,000  Level Cleveland Center
09:53PM 40.2169 -80.3600 272° West 270 311 26,000  Level Cleveland Center
09:54PM 40.2192 -80.4553 272° West 270 311 26,000 -420 Level Cleveland Center
09:55PM 40.2172 -80.5558 269° West 275 316 25,200 -840 Descending Cleveland Center
09:56PM 40.2153 -80.6428 268° West 275 316 24,400 -900 Descending Cleveland Center
09:57PM 40.2131 -80.7489 268° West 280 322 23,400 -1,020 Descending Cleveland Center
09:58PM 40.2106 -80.8522 268° West 285 328 22,400 -720 Descending Cleveland Center
09:59PM 40.2061 -80.9528 267° West 290 334 22,000 -240 Descending Cleveland Center
10:00PM 40.2039 -81.0533 268° West 285 328 22,000 -180 Level Cleveland Center
10:01PM 40.2011 -81.1511 268° West 285 328 21,700 -1,080 Descending Cleveland Center
10:03PM 40.1925 -81.3942 267° West 290 334 18,600 -1,380 Descending Indianapolis Center
10:04PM 40.1892 -81.5000 268° West 288 331 17,300 -1,260 Descending Indianapolis Center
10:05PM 40.1858 -81.6053 268° West 286 329 16,100 -1,200 Descending Indianapolis Center
10:06PM 40.1822 -81.7067 267° West 279 321 14,900 -1,260 Descending Indianapolis Center
10:07PM 40.1883 -81.8067 275° West 263 303 13,600 -1,260 Descending Indianapolis Center
10:08PM 40.2258 -81.8847 302° West 249 287 12,400 -1,260 Descending Indianapolis Center
10:09PM 40.2258 -81.9719 270° West 241 277 11,100 -1,260 Descending Indianapolis Center
10:10PM 40.2139 -82.0564 260° West 235 270 9,900 -1,200 Descending Indianapolis Center
10:11PM 40.2061 -82.1150 260° West 237 273 9,100 -1,200 Descending Indianapolis Center
10:11PM 40.2014 -82.1400 256° West 234 269 8,700 -1,080 Descending Indianapolis Center
10:12PM 40.1992 -82.1961 267° West 227 261 7,900 -720 Descending Indianapolis Center
10:12PM 40.2022 -82.2225 279° West 222 255 8,000  Climbing Indianapolis Center
10:13PM 40.2022 -82.2808 270° West 226 260 7,900 -240 Descending Indianapolis Center
10:13PM 40.2058 -82.3078 280° West 233 268 7,800 -1,200 Descending Indianapolis Center
10:14PM 40.2067 -82.3769 271° West 227 261 6,600 -1,500 Descending Indianapolis Center
10:15PM 40.2094 -82.4672 272° West 238 274 5,200 -1,380 Descending Indianapolis Center
10:16PM 40.2111 -82.4808 279° West 241 277 5,000 -1,320 Descending Indianapolis Center
10:16PM 40.2142 -82.5578 273° West 249 287 3,900 -1,140 Descending Indianapolis Center
10:17PM 40.2153 -82.5717 276° West 246 283 3,900  Level Indianapolis Center
10:17PM 40.2194 -82.6375 275° West 231 266 3,900  Level Indianapolis Center
10:18PM 40.2200 -82.6467 275° West 216 249 3,900  Level Indianapolis Center
10:18PM 40.2236 -82.7006 275° West 177 204 3,900 60 Level Indianapolis Center
10:19PM 40.2239 -82.7097 272° West 182 209 4,000 60 Climbing Indianapolis Center
10:19PM 40.2053 -82.7558 242° Southwest 158 182 4,000  Level Indianapolis Center
10:20PM 40.2003 -82.7631 228° Southwest 170 196 4,000 -300 Level Indianapolis Center
10:20PM 40.1828 -82.8108 244° Southwest 165 190 3,700 -420 Descending Indianapolis Center
10:21PM 40.1794 -82.8178 238° Southwest 167 192 3,600 -540 Descending Indianapolis Center
10:21PM 40.1606 -82.8628 241° Southwest 163 188 3,200 -420 Descending Indianapolis Center
10:22PM 40.1564 -82.8686 227° Southwest 162 186 3,200 -300 Level Indianapolis Center
10:22PM 40.1325 -82.9086 232° Southwest 159 183 2,900 -300 Descending Indianapolis Center
10:23PM 40.1233 -82.9211 226° Southwest 159 183 2,900 -300 Level Indianapolis Center
10:23PM 40.1044 -82.9492 229° Southwest 154 177 2,600 -600 Descending Indianapolis Center
10:24PM 40.0969 -82.9625 234° Southwest 153 176 2,300 -720 Descending Indianapolis Center
10:24PM 40.0853 -82.9850 236° Southwest 123 142 1,900 -600 Descending Indianapolis Center
10:25PM 40.0828 -82.9983 256° West 127 146 1,700 -480 Descending Indianapolis Center
10:25PM 40.0789 -83.0197 257° West 108 124 1,500 -420 Descending Indianapolis Center
10:26PM 40.0778 -83.0372 265° West 113 130 1,300 -360 Descending Indianapolis Center
10:27PM 40.0744 -83.0786 264° West 111 128 1,000 -300 Descending Indianapolis Center